createdAt,value
2019-03-28T00:00:02.001Z,18.50
2019-03-28T00:01:01.987Z,18.50
2019-03-28T00:02:01.978Z,15.20
2019-03-28T00:03:02.145Z,16.20
2019-03-28T00:04:01.955Z,15.90
2019-03-28T00:05:01.943Z,17.70
2019-03-28T00:06:01.936Z,17.80
2019-03-28T00:07:01.921Z,17.60
2019-03-28T00:08:01.912Z,16.10
2019-03-28T00:09:01.900Z,17.40
2019-03-28T00:10:02.558Z,16.50
2019-03-28T00:11:01.887Z,15.60
2019-03-28T00:12:01.867Z,17.00
2019-03-28T00:13:01.857Z,15.90
2019-03-28T00:14:01.846Z,17.90
2019-03-28T00:15:01.837Z,17.10
2019-03-28T00:16:01.826Z,17.50
2019-03-28T00:17:01.813Z,17.10
2019-03-28T00:18:02.330Z,16.20
2019-03-28T00:19:01.794Z,14.80
2019-03-28T00:20:01.784Z,14.30
2019-03-28T00:21:01.771Z,16.40
2019-03-28T00:22:01.760Z,15.90
2019-03-28T00:23:01.749Z,16.40
2019-03-28T00:24:01.737Z,14.60
2019-03-28T00:25:01.726Z,14.30
2019-03-28T00:26:01.717Z,16.40
2019-03-28T00:27:01.705Z,16.80
2019-03-28T00:28:01.695Z,18.40
2019-03-28T00:29:02.281Z,16.80
2019-03-28T00:30:01.677Z,17.30
2019-03-28T00:31:01.665Z,16.00
2019-03-28T00:32:01.654Z,16.20
2019-03-28T00:33:01.640Z,17.00
2019-03-28T00:34:01.632Z,17.40
2019-03-28T00:35:01.619Z,15.60
2019-03-28T00:36:01.607Z,16.10
2019-03-28T00:37:01.597Z,17.50
2019-03-28T00:38:01.586Z,14.90
2019-03-28T00:39:01.574Z,15.40
2019-03-28T00:40:01.688Z,16.30
2019-03-28T00:41:01.555Z,18.70
2019-03-28T00:42:01.549Z,15.30
2019-03-28T00:43:01.535Z,17.10
2019-03-28T00:44:01.521Z,16.30
2019-03-28T00:45:01.521Z,16.60
2019-03-28T00:46:01.499Z,15.30
2019-03-28T00:47:01.487Z,18.00
2019-03-28T00:48:01.477Z,16.10
2019-03-28T00:49:01.466Z,17.70
2019-03-28T00:50:01.456Z,16.30
2019-03-28T00:51:01.445Z,16.10
2019-03-28T00:52:01.433Z,17.20
2019-03-28T00:53:01.424Z,17.60
2019-03-28T00:54:01.412Z,17.20
2019-03-28T00:55:01.405Z,18.80
2019-03-28T00:56:01.391Z,17.20
2019-03-28T00:57:01.379Z,19.60
2019-03-28T00:58:01.368Z,19.90
2019-03-28T00:59:01.359Z,19.00
2019-03-28T01:00:01.356Z,17.30
2019-03-28T01:01:01.337Z,17.20
2019-03-28T01:02:01.331Z,19.30
2019-03-28T01:03:01.315Z,18.80
2019-03-28T01:04:01.307Z,19.60
2019-03-28T01:05:01.293Z,18.60
2019-03-28T01:06:01.282Z,17.00
2019-03-28T01:07:01.271Z,19.90
2019-03-28T01:08:01.262Z,18.40
2019-03-28T01:09:04.066Z,20.20
2019-03-28T01:10:01.239Z,16.20
2019-03-28T01:11:01.227Z,18.70
2019-03-28T01:12:01.727Z,18.80
2019-03-28T01:13:01.208Z,17.00
2019-03-28T01:14:01.201Z,16.70
2019-03-28T01:15:01.186Z,17.20
2019-03-28T01:16:01.179Z,16.60
2019-03-28T01:17:01.165Z,18.70
2019-03-28T01:18:01.150Z,17.60
2019-03-28T01:19:01.143Z,15.10
2019-03-28T01:20:01.129Z,17.70
2019-03-28T01:21:01.122Z,17.60
2019-03-28T01:22:01.114Z,18.40
2019-03-28T01:23:01.100Z,18.30
2019-03-28T01:24:01.087Z,19.10
2019-03-28T01:25:01.756Z,17.70
2019-03-28T01:26:01.066Z,16.80
2019-03-28T01:27:01.054Z,18.80
2019-03-28T01:28:01.043Z,17.30
2019-03-28T01:29:01.032Z,18.10
2019-03-28T01:30:01.023Z,17.40
2019-03-28T01:31:01.011Z,18.50
2019-03-28T01:32:01.002Z,16.70
2019-03-28T01:33:00.990Z,19.50
2019-03-28T01:34:00.977Z,17.80
2019-03-28T01:35:00.974Z,17.50
2019-03-28T01:36:00.956Z,14.60
2019-03-28T01:37:00.952Z,14.80
2019-03-28T01:38:00.934Z,18.10
2019-03-28T01:39:00.924Z,18.30
2019-03-28T01:40:00.913Z,16.80
2019-03-28T01:41:00.902Z,17.40
2019-03-28T01:42:00.891Z,18.50
2019-03-28T01:43:00.882Z,18.40
2019-03-28T01:44:00.872Z,16.70
2019-03-28T01:45:00.860Z,16.80
2019-03-28T01:46:00.850Z,17.70
2019-03-28T01:47:00.837Z,17.20
2019-03-28T01:48:00.827Z,17.70
2019-03-28T01:49:03.599Z,17.10
2019-03-28T01:50:00.806Z,17.80
2019-03-28T01:51:00.794Z,19.50
2019-03-28T01:52:00.785Z,19.30
2019-03-28T01:53:00.773Z,19.10
2019-03-28T01:54:00.763Z,18.90
2019-03-28T01:55:00.750Z,16.70
2019-03-28T01:56:00.739Z,19.80
2019-03-28T01:57:10.350Z,20.10
2019-03-28T01:58:01.724Z,20.50
2019-03-28T01:59:00.707Z,19.70
2019-03-28T02:00:00.698Z,20.30
2019-03-28T02:01:02.908Z,19.50
2019-03-28T02:02:00.676Z,19.40
2019-03-28T02:03:00.667Z,18.80
2019-03-28T02:04:00.653Z,19.40
2019-03-28T02:05:00.642Z,19.80
2019-03-28T02:06:00.630Z,20.70
2019-03-28T02:07:00.620Z,19.90
2019-03-28T02:08:02.736Z,20.80
2019-03-28T02:09:00.600Z,23.80
2019-03-28T02:10:00.591Z,22.20
2019-03-28T02:11:00.578Z,22.10
2019-03-28T02:12:00.564Z,22.90
2019-03-28T02:13:00.556Z,22.40
2019-03-28T02:14:00.545Z,22.70
2019-03-28T02:15:00.535Z,21.40
2019-03-28T02:16:00.522Z,24.70
2019-03-28T02:17:00.513Z,26.40
2019-03-28T02:18:00.500Z,22.30
2019-03-28T02:19:00.493Z,22.90
2019-03-28T02:20:00.479Z,24.60
2019-03-28T02:21:01.274Z,24.10
2019-03-28T02:22:00.461Z,21.50
2019-03-28T02:23:00.449Z,26.10
2019-03-28T02:24:01.269Z,22.50
2019-03-28T02:25:00.425Z,24.90
2019-03-28T02:26:00.415Z,25.70
2019-03-28T02:27:00.405Z,22.80
2019-03-28T02:28:00.397Z,23.80
2019-03-28T02:29:00.381Z,23.30
2019-03-28T02:30:00.550Z,23.50
2019-03-28T02:31:00.361Z,25.90
2019-03-28T02:32:00.352Z,22.80
2019-03-28T02:33:00.339Z,25.80
2019-03-28T02:34:00.328Z,25.90
2019-03-28T02:35:00.628Z,25.60
2019-03-28T02:36:00.317Z,20.50
2019-03-28T02:37:00.298Z,22.00
2019-03-28T02:38:00.288Z,26.20
2019-03-28T02:39:00.274Z,25.00
2019-03-28T02:40:00.503Z,24.30
2019-03-28T02:41:00.254Z,23.60
2019-03-28T02:42:00.278Z,22.50
2019-03-28T02:43:00.239Z,25.40
2019-03-28T02:44:00.221Z,23.70
2019-03-28T02:45:00.496Z,23.30
2019-03-28T02:46:00.202Z,22.90
2019-03-28T02:47:00.189Z,21.50
2019-03-28T02:48:00.178Z,20.90
2019-03-28T02:49:00.169Z,21.40
2019-03-28T02:50:00.442Z,22.80
2019-03-28T02:51:00.143Z,22.80
2019-03-28T02:52:00.141Z,20.30
2019-03-28T02:53:00.124Z,20.80
2019-03-28T02:54:00.114Z,20.30
2019-03-28T02:55:00.529Z,21.90
2019-03-28T02:56:00.091Z,21.50
2019-03-28T02:57:00.080Z,21.10
2019-03-28T02:58:00.071Z,20.70
2019-03-28T02:59:00.059Z,22.30
2019-03-28T03:00:00.047Z,21.10
2019-03-28T03:01:00.036Z,20.90
2019-03-28T03:02:00.029Z,21.40
2019-03-28T03:03:00.026Z,22.00
2019-03-28T03:04:00.003Z,22.00
2019-03-28T03:04:59.993Z,20.90
2019-03-28T03:05:59.981Z,20.90
2019-03-28T03:06:59.972Z,25.20
2019-03-28T03:07:59.960Z,23.30
2019-03-28T03:08:59.949Z,21.40
2019-03-28T03:09:59.938Z,22.70
2019-03-28T03:10:59.928Z,21.30
2019-03-28T03:11:59.968Z,24.30
2019-03-28T03:12:59.905Z,20.10
2019-03-28T03:13:59.895Z,22.20
2019-03-28T03:14:59.896Z,23.70
2019-03-28T03:15:59.877Z,26.00
2019-03-28T03:16:59.861Z,22.10
2019-03-28T03:17:59.853Z,20.40
2019-03-28T03:19:00.083Z,22.20
2019-03-28T03:19:59.829Z,22.40
2019-03-28T03:20:59.820Z,21.20
2019-03-28T03:21:59.806Z,22.30
2019-03-28T03:22:59.797Z,21.50
2019-03-28T03:23:59.785Z,23.60
2019-03-28T03:24:59.774Z,21.20
2019-03-28T03:25:59.769Z,22.40
2019-03-28T03:26:59.754Z,23.50
2019-03-28T03:27:59.748Z,21.30
2019-03-28T03:28:59.730Z,21.60
2019-03-28T03:29:59.726Z,24.40
2019-03-28T03:30:59.725Z,21.50
2019-03-28T03:31:59.703Z,21.70
2019-03-28T03:32:59.688Z,19.40
2019-03-28T03:33:59.697Z,22.10
2019-03-28T03:35:00.647Z,22.60
2019-03-28T03:35:59.655Z,20.70
2019-03-28T03:36:59.649Z,20.10
2019-03-28T03:37:59.641Z,21.30
2019-03-28T03:38:59.625Z,20.10
2019-03-28T03:39:59.618Z,19.60
2019-03-28T03:40:59.601Z,20.50
2019-03-28T03:41:59.593Z,22.00
2019-03-28T03:42:59.582Z,20.60
2019-03-28T03:43:59.572Z,20.70
2019-03-28T03:44:59.559Z,20.30
2019-03-28T03:45:59.545Z,21.60
2019-03-28T03:46:59.537Z,18.80
2019-03-28T03:47:59.526Z,19.00
2019-03-28T03:48:59.518Z,19.40
2019-03-28T03:49:59.510Z,19.40
2019-03-28T03:50:59.496Z,18.60
2019-03-28T03:51:59.483Z,20.10
2019-03-28T03:52:59.476Z,17.80
2019-03-28T03:53:59.462Z,19.80
2019-03-28T03:54:59.452Z,20.00
2019-03-28T03:55:59.439Z,18.30
2019-03-28T03:56:59.429Z,18.50
2019-03-28T03:58:14.384Z,18.80
2019-03-28T03:59:00.404Z,17.70
2019-03-28T03:59:59.395Z,19.20
2019-03-28T04:00:59.394Z,18.40
2019-03-28T04:01:59.373Z,19.20
2019-03-28T04:02:59.367Z,18.10
2019-03-28T04:03:59.362Z,19.90
2019-03-28T04:04:59.341Z,19.20
2019-03-28T04:05:59.332Z,18.10
2019-03-28T04:06:59.328Z,18.00
2019-03-28T04:08:00.081Z,20.00
2019-03-28T04:08:59.298Z,22.40
2019-03-28T04:09:59.290Z,18.40
2019-03-28T04:10:59.278Z,18.10
2019-03-28T04:11:59.271Z,16.20
2019-03-28T04:12:59.255Z,21.70
2019-03-28T04:13:59.244Z,21.60
2019-03-28T04:14:59.244Z,19.70
2019-03-28T04:15:59.226Z,20.20
2019-03-28T04:16:59.214Z,20.50
2019-03-28T04:17:59.200Z,20.90
2019-03-28T04:18:59.190Z,22.40
2019-03-28T04:19:59.179Z,21.60
2019-03-28T04:20:59.169Z,17.90
2019-03-28T04:21:59.156Z,19.60
2019-03-28T04:22:59.147Z,20.20
2019-03-28T04:23:59.135Z,21.20
2019-03-28T04:24:59.125Z,19.20
2019-03-28T04:25:59.113Z,18.50
2019-03-28T04:26:59.104Z,18.20
2019-03-28T04:27:59.091Z,18.60
2019-03-28T04:28:59.081Z,17.90
2019-03-28T04:29:59.076Z,18.90
2019-03-28T04:30:59.061Z,18.80
2019-03-28T04:31:59.048Z,17.50
2019-03-28T04:32:59.036Z,18.40
2019-03-28T04:34:06.589Z,15.50
2019-03-28T04:35:00.014Z,17.60
2019-03-28T04:35:59.007Z,17.80
2019-03-28T04:36:59.003Z,19.70
2019-03-28T04:37:58.983Z,19.60
2019-03-28T04:38:58.974Z,18.30
2019-03-28T04:39:58.961Z,16.80
2019-03-28T04:40:58.950Z,17.70
2019-03-28T04:41:58.954Z,15.90
2019-03-28T04:42:58.930Z,17.90
2019-03-28T04:43:58.918Z,19.00
2019-03-28T04:44:58.908Z,17.20
2019-03-28T04:45:58.897Z,18.10
2019-03-28T04:46:58.885Z,14.90
2019-03-28T04:47:58.877Z,16.60
2019-03-28T04:48:58.871Z,16.00
2019-03-28T04:49:58.893Z,15.90
2019-03-28T04:50:58.842Z,16.60
2019-03-28T04:51:58.831Z,18.00
2019-03-28T04:52:58.822Z,14.40
2019-03-28T04:53:58.814Z,14.40
2019-03-28T04:54:58.798Z,15.60
2019-03-28T04:55:58.788Z,15.10
2019-03-28T04:56:58.779Z,15.50
2019-03-28T04:57:58.767Z,14.90
2019-03-28T04:58:58.756Z,14.80
2019-03-28T04:59:58.749Z,15.30
2019-03-28T05:00:59.454Z,17.30
2019-03-28T05:02:02.935Z,15.20
2019-03-28T05:02:58.713Z,16.70
2019-03-28T05:03:58.702Z,15.80
2019-03-28T05:04:58.690Z,15.70
2019-03-28T05:05:58.685Z,14.20
2019-03-28T05:06:58.668Z,15.60
2019-03-28T05:07:58.657Z,16.50
2019-03-28T05:08:58.649Z,15.20
2019-03-28T05:09:58.637Z,15.70
2019-03-28T05:10:58.626Z,13.60
2019-03-28T05:11:59.421Z,17.40
2019-03-28T05:12:58.602Z,17.00
2019-03-28T05:13:58.593Z,16.30
2019-03-28T05:14:58.582Z,15.70
2019-03-28T05:15:58.569Z,15.00
2019-03-28T05:16:58.563Z,14.90
2019-03-28T05:17:58.551Z,15.90
2019-03-28T05:18:58.540Z,15.60
2019-03-28T05:19:58.528Z,16.10
2019-03-28T05:20:58.517Z,14.30
2019-03-28T05:21:58.505Z,15.50
2019-03-28T05:22:58.495Z,17.40
2019-03-28T05:23:58.483Z,17.50
2019-03-28T05:24:58.724Z,16.20
2019-03-28T05:25:58.462Z,17.80
2019-03-28T05:26:58.456Z,15.90
2019-03-28T05:27:59.323Z,17.60
2019-03-28T05:28:59.406Z,18.50
2019-03-28T05:29:58.421Z,17.00
2019-03-28T05:30:58.407Z,16.20
2019-03-28T05:31:58.398Z,15.90
2019-03-28T05:32:58.388Z,15.90
2019-03-28T05:33:58.376Z,15.70
2019-03-28T05:34:58.369Z,14.30
2019-03-28T05:35:58.354Z,15.10
2019-03-28T05:36:58.344Z,16.10
2019-03-28T05:37:58.332Z,15.30
2019-03-28T05:38:58.325Z,15.40
2019-03-28T05:39:58.316Z,17.90
2019-03-28T05:40:58.315Z,15.80
2019-03-28T05:41:58.293Z,14.30
2019-03-28T05:42:58.278Z,17.80
2019-03-28T05:43:58.278Z,15.60
2019-03-28T05:44:58.258Z,15.30
2019-03-28T05:45:58.249Z,15.30
2019-03-28T05:46:58.279Z,15.20
2019-03-28T05:48:00.316Z,17.20
2019-03-28T05:48:58.265Z,15.40
2019-03-28T05:49:58.203Z,15.70
2019-03-28T05:50:58.193Z,14.90
2019-03-28T05:51:58.235Z,16.50
2019-03-28T05:52:58.174Z,18.60
2019-03-28T05:53:58.272Z,17.10
2019-03-28T05:54:58.149Z,14.10
2019-03-28T05:55:58.137Z,17.60
2019-03-28T05:56:58.126Z,19.70
2019-03-28T05:57:58.116Z,15.90
2019-03-28T05:59:10.173Z,16.30
2019-03-28T05:59:59.129Z,18.40
2019-03-28T06:00:58.085Z,17.60
2019-03-28T06:01:58.330Z,16.30
2019-03-28T06:02:58.065Z,15.50
2019-03-28T06:03:58.052Z,17.90
2019-03-28T06:04:58.086Z,18.20
2019-03-28T06:05:58.059Z,15.80
2019-03-28T06:06:58.073Z,18.00
2019-03-28T06:07:58.112Z,19.10
2019-03-28T06:08:58.146Z,18.00
2019-03-28T06:09:57.991Z,18.40
2019-03-28T06:10:57.977Z,14.70
2019-03-28T06:11:57.963Z,18.60
2019-03-28T06:12:57.955Z,16.60
2019-03-28T06:13:57.944Z,15.40
2019-03-28T06:14:57.933Z,16.40
2019-03-28T06:15:57.921Z,18.30
2019-03-28T06:16:57.910Z,17.60
2019-03-28T06:17:57.898Z,18.60
2019-03-28T06:18:57.888Z,17.30
2019-03-28T06:19:58.180Z,17.90
2019-03-28T06:20:59.549Z,15.70
2019-03-28T06:21:57.855Z,18.80
2019-03-28T06:22:57.844Z,18.20
2019-03-28T06:23:57.835Z,15.70
2019-03-28T06:24:58.043Z,15.50
2019-03-28T06:25:57.892Z,17.30
2019-03-28T06:26:57.866Z,15.40
2019-03-28T06:27:57.885Z,19.20
2019-03-28T06:28:57.936Z,18.70
2019-03-28T06:29:57.800Z,18.50
2019-03-28T06:30:57.758Z,17.30
2019-03-28T06:31:57.748Z,16.10
2019-03-28T06:32:58.982Z,18.10
2019-03-28T06:33:57.726Z,16.80
2019-03-28T06:34:57.714Z,16.00
2019-03-28T06:35:57.705Z,16.70
2019-03-28T06:36:57.693Z,17.40
2019-03-28T06:37:58.467Z,15.70
2019-03-28T06:38:57.670Z,17.30
2019-03-28T06:39:57.661Z,16.00
2019-03-28T06:40:57.649Z,19.30
2019-03-28T06:41:57.639Z,15.90
2019-03-28T06:42:57.629Z,17.90
2019-03-28T06:43:57.616Z,15.30
2019-03-28T06:44:57.604Z,18.40
2019-03-28T06:45:57.594Z,17.20
2019-03-28T06:46:57.583Z,14.60
2019-03-28T06:47:57.572Z,19.20
2019-03-28T06:48:57.563Z,15.10
2019-03-28T06:49:57.556Z,16.20
2019-03-28T06:50:57.539Z,18.30
2019-03-28T06:51:57.533Z,17.40
2019-03-28T06:52:57.521Z,16.80
2019-03-28T06:53:57.590Z,15.90
2019-03-28T06:54:57.498Z,18.30
2019-03-28T06:55:57.487Z,17.50
2019-03-28T06:56:57.475Z,15.10
2019-03-28T06:57:57.467Z,15.30
2019-03-28T06:58:57.455Z,19.50
2019-03-28T06:59:57.445Z,19.00
2019-03-28T07:00:57.433Z,19.60
2019-03-28T07:01:57.424Z,17.80
2019-03-28T07:02:57.421Z,19.10
2019-03-28T07:03:57.401Z,18.10
2019-03-28T07:04:57.409Z,19.40
2019-03-28T07:05:57.380Z,19.30
2019-03-28T07:06:57.367Z,20.00
2019-03-28T07:07:58.310Z,18.90
2019-03-28T07:08:57.348Z,19.10
2019-03-28T07:09:57.335Z,22.40
2019-03-28T07:10:58.151Z,19.40
2019-03-28T07:11:57.318Z,17.70
2019-03-28T07:12:57.313Z,17.80
2019-03-28T07:13:57.296Z,18.50
2019-03-28T07:14:59.563Z,19.40
2019-03-28T07:15:57.272Z,19.40
2019-03-28T07:16:57.264Z,16.00
2019-03-28T07:17:57.251Z,20.40
2019-03-28T07:18:57.240Z,17.80
2019-03-28T07:19:57.228Z,17.90
2019-03-28T07:20:57.217Z,19.40
2019-03-28T07:21:57.206Z,17.30
2019-03-28T07:22:57.196Z,18.20
2019-03-28T07:23:57.185Z,16.10
2019-03-28T07:24:57.174Z,18.00
2019-03-28T07:25:57.164Z,16.50
2019-03-28T07:26:57.152Z,19.50
2019-03-28T07:27:57.141Z,17.30
2019-03-28T07:28:57.131Z,17.00
2019-03-28T07:29:57.120Z,15.90
2019-03-28T07:30:57.109Z,14.80
2019-03-28T07:31:57.102Z,16.60
2019-03-28T07:32:57.091Z,15.40
2019-03-28T07:33:57.077Z,15.10
2019-03-28T07:34:57.067Z,15.10
2019-03-28T07:35:57.055Z,15.20
2019-03-28T07:36:57.045Z,15.90
2019-03-28T07:37:57.032Z,16.00
2019-03-28T07:38:57.026Z,15.30
2019-03-28T07:39:57.011Z,15.00
2019-03-28T07:40:57.003Z,14.00
2019-03-28T07:41:56.989Z,14.00
2019-03-28T07:42:56.979Z,13.80
2019-03-28T07:43:56.969Z,14.80
2019-03-28T07:44:58.112Z,15.60
2019-03-28T07:45:56.954Z,14.30
2019-03-28T07:46:56.936Z,14.50
2019-03-28T07:47:56.926Z,16.10
2019-03-28T07:48:56.916Z,17.20
2019-03-28T07:49:56.904Z,14.30
2019-03-28T07:50:56.893Z,16.50
2019-03-28T07:51:56.884Z,15.60
2019-03-28T07:52:56.875Z,14.40
2019-03-28T07:53:56.867Z,14.80
2019-03-28T07:54:56.861Z,16.50
2019-03-28T07:55:57.496Z,15.10
2019-03-28T07:56:56.828Z,15.60
2019-03-28T07:57:56.818Z,16.80
2019-03-28T07:58:56.807Z,18.70
2019-03-28T08:00:04.236Z,16.20
2019-03-28T08:00:57.783Z,18.30
2019-03-28T08:01:56.774Z,15.20
2019-03-28T08:02:58.447Z,16.00
2019-03-28T08:03:56.753Z,16.50
2019-03-28T08:04:56.742Z,14.90
2019-03-28T08:05:56.731Z,16.10
2019-03-28T08:06:56.721Z,14.70
2019-03-28T08:07:56.718Z,15.00
2019-03-28T08:08:56.722Z,16.30
2019-03-28T08:09:56.687Z,14.60
2019-03-28T08:10:56.680Z,15.60
2019-03-28T08:11:56.687Z,16.50
2019-03-28T08:12:56.673Z,13.70
2019-03-28T08:13:56.645Z,12.90
2019-03-28T08:14:56.634Z,14.80
2019-03-28T08:15:56.624Z,14.80
2019-03-28T08:16:56.613Z,17.10
2019-03-28T08:17:56.602Z,14.10
2019-03-28T08:18:56.590Z,13.50
2019-03-28T08:19:56.580Z,13.80
2019-03-28T08:20:56.570Z,12.70
2019-03-28T08:21:56.561Z,13.60
2019-03-28T08:22:56.559Z,13.20
2019-03-28T08:23:56.541Z,15.60
2019-03-28T08:24:56.526Z,13.00
2019-03-28T08:25:56.517Z,11.90
2019-03-28T08:26:56.511Z,13.50
2019-03-28T08:27:57.769Z,12.70
2019-03-28T08:28:56.481Z,15.80
2019-03-28T08:29:57.937Z,12.90
2019-03-28T08:30:56.458Z,13.70
2019-03-28T08:31:56.448Z,13.50
2019-03-28T08:32:56.441Z,11.40
2019-03-28T08:33:56.425Z,14.90
2019-03-28T08:34:56.416Z,13.90
2019-03-28T08:35:56.408Z,12.30
2019-03-28T08:36:56.404Z,13.70
2019-03-28T08:37:56.382Z,13.30
2019-03-28T08:38:56.376Z,15.70
2019-03-28T08:39:56.362Z,12.90
2019-03-28T08:40:56.349Z,15.20
2019-03-28T08:41:56.338Z,13.70
2019-03-28T08:42:56.327Z,12.20
2019-03-28T08:43:56.333Z,14.60
2019-03-28T08:44:56.305Z,12.60
2019-03-28T08:45:56.309Z,14.30
2019-03-28T08:46:56.285Z,17.00
2019-03-28T08:47:56.273Z,15.00
2019-03-28T08:48:56.262Z,14.30
2019-03-28T08:49:58.756Z,13.70
2019-03-28T08:50:56.239Z,13.50
2019-03-28T08:51:56.227Z,16.00
2019-03-28T08:52:56.218Z,19.00
2019-03-28T08:53:56.206Z,16.40
2019-03-28T08:54:56.193Z,18.80
2019-03-28T08:55:56.183Z,15.50
2019-03-28T08:56:56.173Z,15.40
2019-03-28T08:57:56.163Z,18.20
2019-03-28T08:58:56.150Z,18.50
2019-03-28T08:59:56.146Z,16.50
2019-03-28T09:00:56.129Z,16.60
2019-03-28T09:01:56.116Z,15.60
2019-03-28T09:02:56.221Z,16.70
2019-03-28T09:03:56.097Z,16.50
2019-03-28T09:04:56.089Z,17.80
2019-03-28T09:05:56.075Z,16.50
2019-03-28T09:06:56.063Z,16.90
2019-03-28T09:07:56.053Z,15.70
2019-03-28T09:08:56.040Z,18.00
2019-03-28T09:09:56.033Z,17.10
2019-03-28T09:10:56.020Z,15.60
2019-03-28T09:11:56.010Z,15.20
2019-03-28T09:12:55.997Z,15.60
2019-03-28T09:13:55.995Z,16.60
2019-03-28T09:14:55.976Z,17.90
2019-03-28T09:15:55.972Z,16.10
2019-03-28T09:16:55.954Z,16.50
2019-03-28T09:17:55.943Z,16.00
2019-03-28T09:18:55.931Z,17.00
2019-03-28T09:19:55.922Z,14.60
2019-03-28T09:20:55.909Z,14.60
2019-03-28T09:21:55.909Z,15.20
2019-03-28T09:22:55.888Z,13.30
2019-03-28T09:23:55.877Z,13.10
2019-03-28T09:24:55.866Z,13.00
2019-03-28T09:25:55.856Z,13.30
2019-03-28T09:26:55.843Z,14.00
2019-03-28T09:27:55.834Z,15.10
2019-03-28T09:28:55.821Z,13.60
2019-03-28T09:29:55.812Z,13.50
2019-03-28T09:30:55.800Z,12.20
2019-03-28T09:31:55.788Z,12.00
2019-03-28T09:32:55.780Z,12.80
2019-03-28T09:33:55.766Z,13.10
2019-03-28T09:34:55.756Z,12.10
2019-03-28T09:35:55.745Z,11.10
2019-03-28T09:36:55.744Z,12.00
2019-03-28T09:37:55.724Z,9.70
2019-03-28T09:38:55.716Z,9.90
2019-03-28T09:39:55.702Z,10.60
2019-03-28T09:40:55.691Z,10.20
2019-03-28T09:41:55.681Z,11.90
2019-03-28T09:42:55.669Z,11.80
2019-03-28T09:43:56.081Z,11.80
2019-03-28T09:44:56.361Z,12.80
2019-03-28T09:45:55.648Z,12.40
2019-03-28T09:46:55.858Z,11.50
2019-03-28T09:47:55.615Z,12.00
2019-03-28T09:48:55.604Z,12.00
2019-03-28T09:49:55.592Z,13.10
2019-03-28T09:50:55.588Z,12.30
2019-03-28T09:51:55.571Z,12.70
2019-03-28T09:52:55.560Z,12.60
2019-03-28T09:53:55.549Z,13.40
2019-03-28T09:54:55.543Z,12.90
2019-03-28T09:55:55.527Z,12.00
2019-03-28T09:56:55.517Z,14.40
2019-03-28T09:57:55.509Z,12.50
2019-03-28T09:58:55.494Z,12.00
2019-03-28T09:59:55.484Z,10.30
2019-03-28T10:01:02.888Z,11.20
2019-03-28T10:01:56.461Z,13.20
2019-03-28T10:02:55.457Z,11.00
2019-03-28T10:03:55.445Z,11.50
2019-03-28T10:04:55.430Z,13.00
2019-03-28T10:05:55.421Z,10.10
2019-03-28T10:06:55.409Z,11.70
2019-03-28T10:07:55.397Z,11.30
2019-03-28T10:08:55.391Z,10.90
2019-03-28T10:09:55.417Z,10.50
2019-03-28T10:10:55.364Z,9.80
2019-03-28T10:11:55.353Z,10.80
2019-03-28T10:12:55.344Z,9.50
2019-03-28T10:13:55.331Z,9.80
2019-03-28T10:14:55.321Z,10.00
2019-03-28T10:15:57.406Z,11.90
2019-03-28T10:16:55.299Z,11.00
2019-03-28T10:17:55.289Z,11.70
2019-03-28T10:18:55.278Z,10.50
2019-03-28T10:19:55.267Z,9.70
2019-03-28T10:20:55.261Z,10.30
2019-03-28T10:21:55.245Z,11.50
2019-03-28T10:22:55.235Z,11.60
2019-03-28T10:23:55.222Z,11.30
2019-03-28T10:24:55.212Z,10.50
2019-03-28T10:25:55.200Z,10.30
2019-03-28T10:26:55.191Z,11.10
2019-03-28T10:27:55.194Z,10.00
2019-03-28T10:28:55.171Z,14.50
2019-03-28T10:29:55.157Z,10.60
2019-03-28T10:30:55.147Z,10.90
2019-03-28T10:31:55.138Z,10.20
2019-03-28T10:32:55.125Z,11.10
2019-03-28T10:33:55.113Z,10.40
2019-03-28T10:34:55.102Z,11.40
2019-03-28T10:35:55.092Z,11.80
2019-03-28T10:36:55.081Z,12.70
2019-03-28T10:37:55.070Z,11.80
2019-03-28T10:38:55.059Z,11.50
2019-03-28T10:39:55.050Z,12.50
2019-03-28T10:40:55.038Z,13.00
2019-03-28T10:41:55.092Z,13.40
2019-03-28T10:42:55.016Z,12.20
2019-03-28T10:43:55.004Z,12.30
2019-03-28T10:44:54.994Z,12.70
2019-03-28T10:45:54.985Z,13.70
2019-03-28T10:46:54.975Z,12.30
2019-03-28T10:47:54.992Z,13.50
2019-03-28T10:48:54.952Z,12.40
2019-03-28T10:49:54.939Z,10.30
2019-03-28T10:50:54.931Z,10.70
2019-03-28T10:51:54.918Z,9.10
2019-03-28T10:52:54.918Z,11.50
2019-03-28T10:53:54.899Z,11.00
2019-03-28T10:54:54.893Z,8.70
2019-03-28T10:55:54.890Z,9.80
2019-03-28T10:56:57.924Z,11.10
2019-03-28T10:57:54.852Z,10.10
2019-03-28T10:58:54.846Z,11.10
2019-03-28T10:59:54.834Z,12.30
2019-03-28T11:00:55.838Z,9.90
2019-03-28T11:01:54.819Z,10.10
2019-03-28T11:02:54.836Z,11.80
2019-03-28T11:03:54.786Z,10.40
2019-03-28T11:04:54.776Z,12.30
2019-03-28T11:05:54.766Z,10.20
2019-03-28T11:06:54.763Z,11.80
2019-03-28T11:07:54.748Z,9.50
2019-03-28T11:08:54.738Z,10.80
2019-03-28T11:09:54.732Z,11.70
2019-03-28T11:10:54.711Z,10.00
2019-03-28T11:11:54.703Z,12.20
2019-03-28T11:12:54.695Z,10.50
2019-03-28T11:13:54.682Z,9.80
2019-03-28T11:14:54.672Z,10.00
2019-03-28T11:15:54.658Z,11.50
2019-03-28T11:16:55.953Z,8.20
2019-03-28T11:17:54.644Z,9.50
2019-03-28T11:18:54.631Z,9.00
2019-03-28T11:19:56.149Z,10.70
2019-03-28T11:20:54.615Z,10.80
2019-03-28T11:21:54.592Z,11.70
2019-03-28T11:22:54.584Z,11.20
2019-03-28T11:23:54.571Z,10.00
2019-03-28T11:24:54.559Z,11.00
2019-03-28T11:25:57.222Z,11.80
2019-03-28T11:26:54.538Z,11.40
2019-03-28T11:27:54.526Z,11.40
2019-03-28T11:28:54.520Z,8.10
2019-03-28T11:29:54.506Z,9.40
2019-03-28T11:30:54.498Z,10.50
2019-03-28T11:31:54.484Z,10.50
2019-03-28T11:32:54.473Z,8.80
2019-03-28T11:33:54.461Z,10.00
2019-03-28T11:34:54.457Z,8.80
2019-03-28T11:35:54.440Z,11.00
2019-03-28T11:36:54.428Z,9.80
2019-03-28T11:37:54.780Z,12.20
2019-03-28T11:38:54.967Z,9.20
2019-03-28T11:39:54.402Z,10.60
2019-03-28T11:40:54.397Z,11.10
2019-03-28T11:41:54.373Z,9.70
2019-03-28T11:42:54.361Z,10.90
2019-03-28T11:43:54.352Z,13.00
2019-03-28T11:44:54.344Z,11.30
2019-03-28T11:45:54.331Z,11.20
2019-03-28T11:46:54.319Z,13.40
2019-03-28T11:47:54.306Z,12.00
2019-03-28T11:48:54.310Z,12.10
2019-03-28T11:49:54.284Z,14.00
2019-03-28T11:50:54.273Z,11.70
2019-03-28T11:51:54.281Z,10.60
2019-03-28T11:52:54.264Z,10.80
2019-03-28T11:53:54.240Z,12.00
2019-03-28T11:54:54.232Z,10.90
2019-03-28T11:55:54.219Z,11.30
2019-03-28T11:56:54.208Z,11.50
2019-03-28T11:57:56.444Z,12.70
2019-03-28T11:58:54.191Z,9.70
2019-03-28T11:59:54.187Z,10.40
2019-03-28T12:00:54.164Z,11.10
2019-03-28T12:02:00.019Z,12.30
2019-03-28T12:02:55.139Z,9.80
2019-03-28T12:03:54.131Z,9.40
2019-03-28T12:04:54.117Z,12.00
2019-03-28T12:05:54.188Z,9.40
2019-03-28T12:06:54.098Z,11.60
2019-03-28T12:07:54.086Z,10.30
2019-03-28T12:08:55.908Z,11.50
2019-03-28T12:09:54.071Z,11.80
2019-03-28T12:10:54.052Z,8.40
2019-03-28T12:11:54.042Z,9.10
2019-03-28T12:12:54.030Z,7.80
2019-03-28T12:13:54.033Z,7.30
2019-03-28T12:14:54.030Z,9.20
2019-03-28T12:15:54.008Z,7.00
2019-03-28T12:16:53.999Z,6.70
2019-03-28T12:17:53.995Z,6.90
2019-03-28T12:18:53.966Z,6.60
2019-03-28T12:19:53.962Z,6.50
2019-03-28T12:20:53.954Z,7.40
2019-03-28T12:21:53.939Z,7.30
2019-03-28T12:22:56.080Z,5.80
2019-03-28T12:23:53.921Z,5.60
2019-03-28T12:24:53.902Z,5.30
2019-03-28T12:25:53.889Z,4.90
2019-03-28T12:26:53.886Z,7.70
2019-03-28T12:27:53.868Z,5.70
2019-03-28T12:28:53.857Z,5.40
2019-03-28T12:29:53.849Z,6.10
2019-03-28T12:30:53.844Z,5.90
2019-03-28T12:31:53.823Z,5.80
2019-03-28T12:32:53.819Z,5.20
2019-03-28T12:33:53.804Z,6.00
2019-03-28T12:34:53.802Z,7.20
2019-03-28T12:35:53.795Z,5.60
2019-03-28T12:36:53.769Z,5.60
2019-03-28T12:37:53.758Z,5.30
2019-03-28T12:38:54.636Z,8.00
2019-03-28T12:39:53.739Z,5.80
2019-03-28T12:40:53.724Z,7.60
2019-03-28T12:41:53.717Z,6.50
2019-03-28T12:42:53.707Z,7.00
2019-03-28T12:43:53.691Z,6.70
2019-03-28T12:44:57.336Z,6.00
2019-03-28T12:45:53.695Z,6.60
2019-03-28T12:46:53.661Z,5.50
2019-03-28T12:47:53.650Z,5.50
2019-03-28T12:48:53.639Z,6.90
2019-03-28T12:49:53.627Z,5.90
2019-03-28T12:50:59.066Z,7.50
2019-03-28T12:51:54.604Z,6.10
2019-03-28T12:52:53.595Z,7.40
2019-03-28T12:53:53.584Z,6.80